createdAt,value
2018-03-16T00:01:33.809Z,68.92
2018-03-16T00:04:01.437Z,68.81
2018-03-16T00:06:29.094Z,68.85
2018-03-16T00:08:56.695Z,68.68
2018-03-16T00:11:24.331Z,68.41
2018-03-16T00:13:51.927Z,68.90
2018-03-16T00:16:19.540Z,69.32
2018-03-16T00:18:47.126Z,68.81
2018-03-16T00:21:14.718Z,68.60
2018-03-16T00:23:42.344Z,68.91
2018-03-16T00:26:09.939Z,69.56
2018-03-16T00:28:37.576Z,69.10
2018-03-16T00:31:05.163Z,69.03
2018-03-16T00:33:32.752Z,68.66
2018-03-16T00:36:00.363Z,68.56
2018-03-16T00:38:27.963Z,69.02
2018-03-16T00:40:55.593Z,69.35
2018-03-16T00:43:23.189Z,68.66
2018-03-16T00:45:50.791Z,68.84
2018-03-16T00:48:18.411Z,69.00
2018-03-16T00:50:46.015Z,69.20
2018-03-16T00:53:13.630Z,69.07
2018-03-16T00:55:41.528Z,70.01
2018-03-16T00:58:09.125Z,69.89
2018-03-16T01:00:36.733Z,69.92
2018-03-16T01:03:04.336Z,69.17
2018-03-16T01:05:32.776Z,69.55
2018-03-16T01:08:00.388Z,69.45
2018-03-16T01:10:27.972Z,69.32
2018-03-16T01:12:55.589Z,69.33
2018-03-16T01:15:23.180Z,69.67
2018-03-16T01:17:50.805Z,69.82
2018-03-16T01:20:18.407Z,69.48
2018-03-16T01:22:46.000Z,70.00
2018-03-16T01:25:13.611Z,70.13
2018-03-16T01:27:41.209Z,70.24
2018-03-16T01:30:08.845Z,70.21
2018-03-16T01:32:36.437Z,70.56
2018-03-16T01:35:04.026Z,71.28
2018-03-16T01:37:31.636Z,70.64
2018-03-16T01:39:59.238Z,70.64
2018-03-16T01:42:27.117Z,71.69
2018-03-16T01:44:54.712Z,71.09
2018-03-16T01:47:22.300Z,70.89
2018-03-16T01:49:49.908Z,71.46
2018-03-16T01:52:17.516Z,71.82
2018-03-16T01:54:45.105Z,71.88
2018-03-16T01:57:12.725Z,71.64
2018-03-16T01:59:40.327Z,71.52
2018-03-16T02:02:08.209Z,71.22
2018-03-16T02:04:35.803Z,71.06
2018-03-16T02:07:03.390Z,71.42
2018-03-16T02:09:31.050Z,71.09
2018-03-16T02:11:58.640Z,71.38
2018-03-16T02:14:26.241Z,71.95
2018-03-16T02:16:54.166Z,71.86
2018-03-16T02:19:21.781Z,71.37
2018-03-16T02:21:49.379Z,71.41
2018-03-16T02:24:17.062Z,71.46
2018-03-16T02:26:44.662Z,71.68
2018-03-16T02:29:12.676Z,72.19
2018-03-16T02:31:40.268Z,71.97
2018-03-16T02:34:07.900Z,72.02
2018-03-16T02:36:35.521Z,72.25
2018-03-16T02:39:03.112Z,72.78
2018-03-16T02:41:30.764Z,72.99
2018-03-16T02:43:58.362Z,73.05
2018-03-16T02:46:25.960Z,73.21
2018-03-16T02:48:53.680Z,73.28
2018-03-16T02:51:21.272Z,73.07
2018-03-16T02:53:49.103Z,72.97
2018-03-16T02:56:16.697Z,73.03
2018-03-16T02:58:44.296Z,73.62
2018-03-16T03:01:11.916Z,73.47
2018-03-16T03:03:39.531Z,72.79
2018-03-16T03:06:07.420Z,72.62
2018-03-16T03:08:35.012Z,72.41
2018-03-16T03:11:02.599Z,72.73
2018-03-16T03:13:30.287Z,72.15
2018-03-16T03:15:57.874Z,71.90
2018-03-16T03:18:25.829Z,72.14
2018-03-16T03:20:53.707Z,72.44
2018-03-16T03:23:21.300Z,72.63
2018-03-16T03:25:48.916Z,73.06
2018-03-16T03:28:16.590Z,72.50
2018-03-16T03:30:44.317Z,72.39
2018-03-16T03:33:11.912Z,72.80
2018-03-16T03:35:39.503Z,72.82
2018-03-16T03:38:07.902Z,72.58
2018-03-16T03:40:35.496Z,72.92
2018-03-16T03:43:03.136Z,72.41
2018-03-16T03:45:30.731Z,72.38
2018-03-16T03:47:58.343Z,72.23
2018-03-16T03:50:25.968Z,71.92
2018-03-16T03:52:53.568Z,71.84
2018-03-16T03:55:21.196Z,72.46
2018-03-16T03:57:48.791Z,72.46
2018-03-16T04:00:16.390Z,72.33
2018-03-16T04:02:44.007Z,72.13
2018-03-16T04:05:11.597Z,72.32
2018-03-16T04:07:39.533Z,72.11
2018-03-16T04:10:07.140Z,72.79
2018-03-16T04:12:34.736Z,72.72
2018-03-16T04:15:02.353Z,72.55
2018-03-16T04:17:30.043Z,72.54
2018-03-16T04:19:57.897Z,72.58
2018-03-16T04:22:25.496Z,72.73
2018-03-16T04:24:53.092Z,72.97
2018-03-16T04:27:21.421Z,72.74
2018-03-16T04:29:49.021Z,73.10
2018-03-16T04:32:16.944Z,72.96
2018-03-16T04:34:44.542Z,72.91
2018-03-16T04:37:12.139Z,72.79
2018-03-16T04:39:39.759Z,72.71
2018-03-16T04:42:07.357Z,72.51
2018-03-16T04:44:34.972Z,73.15
2018-03-16T04:47:02.584Z,72.81
2018-03-16T04:49:30.375Z,72.66
2018-03-16T04:51:57.975Z,73.33
2018-03-16T04:54:25.588Z,73.00
2018-03-16T04:56:53.251Z,72.75
2018-03-16T04:59:20.847Z,72.79
2018-03-16T05:01:48.468Z,72.95
2018-03-16T05:04:16.135Z,73.02
2018-03-16T05:06:44.195Z,72.99
2018-03-16T05:09:11.783Z,72.73
2018-03-16T05:11:39.380Z,72.60
2018-03-16T05:14:07.007Z,72.65
2018-03-16T05:16:34.609Z,72.61
2018-03-16T05:19:02.449Z,72.68
2018-03-16T05:21:30.033Z,72.59
2018-03-16T05:23:57.628Z,73.18
2018-03-16T05:26:25.244Z,72.79
2018-03-16T05:28:52.992Z,72.66
2018-03-16T05:31:20.627Z,72.87
2018-03-16T05:33:48.216Z,72.96
2018-03-16T05:36:15.853Z,73.46
2018-03-16T05:38:43.456Z,73.58
2018-03-16T05:41:11.053Z,73.08
2018-03-16T05:43:38.665Z,72.90
2018-03-16T05:46:06.256Z,72.85
2018-03-16T05:48:33.880Z,72.74
2018-03-16T05:51:01.486Z,73.05
2018-03-16T05:53:29.119Z,72.62
2018-03-16T05:55:56.722Z,72.61
2018-03-16T05:58:24.334Z,72.35
2018-03-16T06:00:52.036Z,72.99
2018-03-16T06:03:19.600Z,73.01
2018-03-16T06:05:47.215Z,72.73
2018-03-16T06:08:14.848Z,73.02
2018-03-16T06:10:42.504Z,73.13
2018-03-16T06:13:10.098Z,73.74
2018-03-16T06:15:37.684Z,73.77
2018-03-16T06:18:05.312Z,73.65
2018-03-16T06:20:32.942Z,74.15
2018-03-16T06:23:00.554Z,74.40
2018-03-16T06:25:28.158Z,74.44
2018-03-16T06:27:56.032Z,73.95
2018-03-16T06:30:23.807Z,74.08
2018-03-16T06:32:51.400Z,74.14
2018-03-16T06:35:19.058Z,74.40
2018-03-16T06:37:46.655Z,74.57
2018-03-16T06:40:14.320Z,75.08
2018-03-16T06:42:41.923Z,74.65
2018-03-16T06:45:09.839Z,75.26
2018-03-16T06:47:37.438Z,75.50
2018-03-16T06:50:05.034Z,75.02
2018-03-16T06:52:32.698Z,75.03
2018-03-16T06:55:00.304Z,74.98
2018-03-16T06:57:27.977Z,74.28
2018-03-16T06:59:55.574Z,74.31
2018-03-16T07:02:23.397Z,74.28
2018-03-16T07:04:50.993Z,74.12
2018-03-16T07:07:18.585Z,73.07
2018-03-16T07:09:46.200Z,73.49
2018-03-16T07:12:13.863Z,73.09
2018-03-16T07:14:41.519Z,73.08
2018-03-16T07:17:09.133Z,72.41
2018-03-16T07:19:37.257Z,72.16
2018-03-16T07:22:04.860Z,72.38
2018-03-16T07:24:32.456Z,72.26
2018-03-16T07:27:00.090Z,71.57
2018-03-16T07:29:27.690Z,71.84
2018-03-16T07:31:55.307Z,71.36
2018-03-16T07:34:22.905Z,71.68
2018-03-16T07:36:50.552Z,71.71
2018-03-16T07:39:18.152Z,72.35
2018-03-16T07:41:45.764Z,73.12
2018-03-16T07:44:13.446Z,73.10
2018-03-16T07:46:41.060Z,72.96
2018-03-16T07:49:08.685Z,73.34
2018-03-16T07:51:36.298Z,74.17
2018-03-16T07:54:04.217Z,74.60
2018-03-16T07:56:31.817Z,74.40
2018-03-16T07:58:59.416Z,75.05
2018-03-16T08:01:27.032Z,75.09
2018-03-16T08:03:54.641Z,74.60
2018-03-16T08:06:22.272Z,74.93
2018-03-16T08:08:49.873Z,74.78
2018-03-16T08:11:17.758Z,75.36
2018-03-16T08:13:45.364Z,75.37
2018-03-16T08:16:12.988Z,75.74
2018-03-16T08:18:40.608Z,75.17
2018-03-16T08:21:08.199Z,75.37
2018-03-16T08:23:35.823Z,74.95
2018-03-16T08:26:03.421Z,75.09
2018-03-16T08:28:31.036Z,74.06
2018-03-16T08:30:58.660Z,73.72
2018-03-16T08:33:26.259Z,73.09
2018-03-16T08:35:53.887Z,73.22
2018-03-16T08:38:21.531Z,71.47
2018-03-16T08:40:49.143Z,72.31
2018-03-16T08:43:16.784Z,72.14
2018-03-16T08:45:44.394Z,71.72
2018-03-16T08:48:12.188Z,71.84
2018-03-16T08:50:39.785Z,71.58
2018-03-16T08:53:07.390Z,71.64
2018-03-16T08:55:35.293Z,71.02
2018-03-16T08:58:03.160Z,71.21
2018-03-16T09:00:30.837Z,72.46
2018-03-16T09:02:58.440Z,71.88
2018-03-16T09:05:26.851Z,70.82
2018-03-16T09:07:54.467Z,70.99
2018-03-16T09:10:22.078Z,71.03
2018-03-16T09:12:49.712Z,70.81
2018-03-16T09:15:17.322Z,71.22
2018-03-16T09:17:44.935Z,70.14
2018-03-16T09:20:12.715Z,70.02
2018-03-16T09:22:40.351Z,68.70
2018-03-16T09:25:08.365Z,68.79
2018-03-16T09:27:36.332Z,68.44
2018-03-16T09:30:03.976Z,68.36
2018-03-16T09:32:32.055Z,67.66
2018-03-16T09:35:00.006Z,68.41
2018-03-16T09:37:27.612Z,67.80
2018-03-16T09:39:55.205Z,66.74
2018-03-16T09:42:22.816Z,66.55
2018-03-16T09:44:50.423Z,66.96
2018-03-16T09:47:18.175Z,66.09
2018-03-16T09:49:45.757Z,66.46
2018-03-16T09:52:13.560Z,67.82
2018-03-16T09:54:53.405Z,68.38
2018-03-16T09:57:21.290Z,67.11
2018-03-16T09:59:49.266Z,67.63
2018-03-16T10:02:16.919Z,68.18
2018-03-16T10:04:44.532Z,68.85
2018-03-16T10:07:12.332Z,70.67
2018-03-16T10:09:40.605Z,71.97
2018-03-16T10:12:08.267Z,71.29
2018-03-16T10:14:35.908Z,72.46
2018-03-16T10:17:03.509Z,71.80
2018-03-16T10:19:31.123Z,71.24
2018-03-16T10:21:58.732Z,72.66
2018-03-16T10:24:26.670Z,71.23
2018-03-16T10:26:54.549Z,71.79
2018-03-16T10:29:22.220Z,70.46
2018-03-16T10:31:50.187Z,71.27
2018-03-16T10:34:17.814Z,71.94
2018-03-16T10:36:45.415Z,72.89
2018-03-16T10:39:13.024Z,73.23
2018-03-16T10:41:40.924Z,73.86
2018-03-16T10:44:08.568Z,72.75
2018-03-16T10:46:36.198Z,73.48
2018-03-16T10:49:04.074Z,73.42
2018-03-16T10:51:31.660Z,73.70
2018-03-16T10:53:59.290Z,71.78
2018-03-16T10:56:26.920Z,70.50
2018-03-16T10:58:54.511Z,71.21
2018-03-16T11:01:22.456Z,71.32
2018-03-16T11:03:51.303Z,70.43
2018-03-16T11:06:24.616Z,69.50
2018-03-16T11:08:52.216Z,69.76
2018-03-16T11:11:19.834Z,67.75
2018-03-16T11:13:47.443Z,68.73
2018-03-16T11:16:15.621Z,66.59
2018-03-16T11:18:43.207Z,68.14
2018-03-16T11:21:10.807Z,69.20
2018-03-16T11:23:38.435Z,67.66
2018-03-16T11:26:06.114Z,67.59
2018-03-16T11:28:33.728Z,68.70
2018-03-16T11:31:01.477Z,67.08
2018-03-16T11:33:29.557Z,67.14
2018-03-16T11:35:57.160Z,67.03
2018-03-16T11:38:24.778Z,67.35
2018-03-16T11:40:52.418Z,66.18
2018-03-16T11:43:20.115Z,66.72
2018-03-16T11:45:47.755Z,65.53
2018-03-16T11:48:15.470Z,65.68
2018-03-16T11:50:43.147Z,66.57
2018-03-16T11:53:10.744Z,65.65
2018-03-16T11:55:38.333Z,66.65
2018-03-16T11:58:05.951Z,67.80
2018-03-16T12:00:33.563Z,69.59
2018-03-16T12:03:01.195Z,69.46
2018-03-16T12:05:29.029Z,69.99
2018-03-16T12:07:57.105Z,68.42
2018-03-16T12:10:24.699Z,69.34
2018-03-16T12:12:52.604Z,70.06
2018-03-16T12:15:20.520Z,72.02
2018-03-16T12:17:48.128Z,72.29
2018-03-16T12:20:15.755Z,72.67
2018-03-16T12:22:43.352Z,71.10
2018-03-16T12:25:10.938Z,70.92
2018-03-16T12:27:38.552Z,70.78
2018-03-16T12:30:06.167Z,70.22
2018-03-16T12:32:33.788Z,70.28
2018-03-16T12:35:01.651Z,68.30
2018-03-16T12:37:29.558Z,67.90
2018-03-16T12:39:57.156Z,67.16
2018-03-16T12:42:25.033Z,67.31
2018-03-16T12:44:52.984Z,66.57
2018-03-16T12:47:20.589Z,66.19
2018-03-16T12:49:48.239Z,66.87
2018-03-16T12:52:15.828Z,67.70
2018-03-16T12:54:43.824Z,66.39
2018-03-16T12:57:11.406Z,67.14
2018-03-16T12:59:38.998Z,66.60
2018-03-16T13:02:06.615Z,66.08
2018-03-16T13:04:34.216Z,65.43
2018-03-16T13:07:01.820Z,66.09
2018-03-16T13:09:29.416Z,66.23
2018-03-16T13:11:57.374Z,66.21
2018-03-16T13:14:25.353Z,65.36
2018-03-16T13:16:52.981Z,65.36
2018-03-16T13:19:20.643Z,66.82
2018-03-16T13:21:48.232Z,68.50
2018-03-16T13:24:16.964Z,69.38
2018-03-16T13:26:44.885Z,69.87
2018-03-16T13:29:12.956Z,70.65
2018-03-16T13:31:41.051Z,71.48
2018-03-16T13:34:08.659Z,71.12
2018-03-16T13:36:38.285Z,72.43
2018-03-16T13:39:05.889Z,71.85
2018-03-16T13:41:33.829Z,73.13
2018-03-16T13:44:01.801Z,74.56
2018-03-16T13:46:29.459Z,73.49
2018-03-16T13:48:57.588Z,73.40
2018-03-16T13:51:25.201Z,73.42
2018-03-16T13:53:52.918Z,74.04
2018-03-16T13:56:20.527Z,73.96
2018-03-16T13:58:48.136Z,73.15
2018-03-16T14:01:15.806Z,73.46
2018-03-16T14:03:43.420Z,73.63
2018-03-16T14:06:11.033Z,73.68
2018-03-16T14:08:38.655Z,72.60
2018-03-16T14:11:06.386Z,73.05
2018-03-16T14:13:34.252Z,73.21
2018-03-16T14:16:02.034Z,73.16
2018-03-16T14:18:29.911Z,72.38
2018-03-16T14:20:57.512Z,71.52
2018-03-16T14:23:25.096Z,70.61
2018-03-16T14:25:52.757Z,70.58
2018-03-16T14:28:20.352Z,70.24
2018-03-16T14:30:48.013Z,70.48
2018-03-16T14:33:15.839Z,70.06
2018-03-16T14:35:43.966Z,70.27
2018-03-16T14:38:11.636Z,70.97
2018-03-16T14:40:39.290Z,70.33
2018-03-16T14:43:06.999Z,70.44
2018-03-16T14:45:34.657Z,70.35
2018-03-16T14:48:03.497Z,70.27
2018-03-16T14:50:31.444Z,70.63
2018-03-16T14:52:59.397Z,69.72
2018-03-16T14:55:26.995Z,70.18
2018-03-16T14:57:54.588Z,69.49
2018-03-16T15:00:22.220Z,68.98
2018-03-16T15:02:49.816Z,68.97
2018-03-16T15:05:17.608Z,68.08
2018-03-16T15:07:45.213Z,68.15
2018-03-16T15:10:12.856Z,68.34
2018-03-16T15:12:40.479Z,68.41
2018-03-16T15:15:08.100Z,68.29
2018-03-16T15:17:35.716Z,68.55
2018-03-16T15:20:10.613Z,68.83
2018-03-16T15:22:47.476Z,68.46
2018-03-16T15:25:15.769Z,68.63
2018-03-16T15:27:43.382Z,68.04
2018-03-16T15:30:10.994Z,67.30
2018-03-16T15:32:38.781Z,67.45
2018-03-16T15:35:06.372Z,67.24
2018-03-16T15:37:34.656Z,65.68
2018-03-16T15:40:02.406Z,66.33
2018-03-16T15:42:29.997Z,65.84
2018-03-16T15:44:57.604Z,65.07
2018-03-16T15:47:25.197Z,65.56
2018-03-16T15:49:53.371Z,65.55
2018-03-16T15:52:21.234Z,65.48
2018-03-16T15:54:48.827Z,65.10
2018-03-16T15:57:16.444Z,65.79
2018-03-16T15:59:44.039Z,65.26
2018-03-16T16:02:11.668Z,65.58
2018-03-16T16:04:39.268Z,65.11
2018-03-16T16:07:07.082Z,65.62
2018-03-16T16:09:34.684Z,65.13
2018-03-16T16:12:02.288Z,65.73
2018-03-16T16:14:29.971Z,65.56
2018-03-16T16:16:57.572Z,65.30
2018-03-16T16:19:25.530Z,65.22
2018-03-16T16:21:53.385Z,65.09
2018-03-16T16:24:21.246Z,65.43
2018-03-16T16:26:48.841Z,65.42
2018-03-16T16:29:16.441Z,65.97
2018-03-16T16:31:44.069Z,66.19
2018-03-16T16:34:11.667Z,66.51
2018-03-16T16:36:39.277Z,66.82
2018-03-16T16:39:06.890Z,67.01
2018-03-16T16:41:34.740Z,67.11
2018-03-16T16:44:02.346Z,67.10
2018-03-16T16:46:29.947Z,67.08
2018-03-16T16:48:57.565Z,66.78
2018-03-16T16:51:25.150Z,67.27
2018-03-16T16:53:52.993Z,67.40
2018-03-16T16:56:21.098Z,67.48
2018-03-16T16:58:49.225Z,67.04
2018-03-16T17:01:16.828Z,67.39
2018-03-16T17:03:44.466Z,67.80
2018-03-16T17:06:12.112Z,67.76
2018-03-16T17:08:39.700Z,67.47
2018-03-16T17:11:07.325Z,66.92
2018-03-16T17:13:34.916Z,68.38
2018-03-16T17:16:02.625Z,68.36
2018-03-16T17:18:30.227Z,68.45
2018-03-16T17:20:57.848Z,68.71
2018-03-16T17:23:25.470Z,69.07
2018-03-16T17:25:53.098Z,69.29
2018-03-16T17:28:20.715Z,69.98
2018-03-16T17:30:48.296Z,69.96
2018-03-16T17:33:15.923Z,71.85
2018-03-16T17:35:43.541Z,72.38
2018-03-16T17:38:11.136Z,73.91
2018-03-16T17:40:38.781Z,74.25
2018-03-16T17:43:06.392Z,74.65
2018-03-16T17:45:34.007Z,76.48
2018-03-16T17:48:01.657Z,77.28
2018-03-16T17:50:29.320Z,76.97
2018-03-16T17:52:56.939Z,76.24
2018-03-16T17:55:24.524Z,76.35
2018-03-16T17:57:52.144Z,76.93
2018-03-16T18:00:19.730Z,77.12
2018-03-16T18:02:47.330Z,77.28
2018-03-16T18:05:14.964Z,76.66
2018-03-16T18:07:42.556Z,76.70
2018-03-16T18:10:10.180Z,76.74
2018-03-16T18:12:37.769Z,77.29
2018-03-16T18:15:05.368Z,77.31
2018-03-16T18:17:33.005Z,77.83
2018-03-16T18:20:00.641Z,79.38
2018-03-16T18:22:28.268Z,79.64
2018-03-16T18:24:55.857Z,79.94
2018-03-16T18:27:23.449Z,80.17
2018-03-16T18:29:51.062Z,79.25
2018-03-16T18:32:18.697Z,78.87
2018-03-16T18:34:46.514Z,78.61
2018-03-16T18:37:14.099Z,78.90
2018-03-16T18:39:41.698Z,78.23
2018-03-16T18:42:09.310Z,78.41
2018-03-16T18:44:36.903Z,78.95
2018-03-16T18:47:04.739Z,78.49
2018-03-16T18:49:32.351Z,78.39
2018-03-16T18:52:00.042Z,77.10
2018-03-16T18:54:27.663Z,76.95
2018-03-16T18:56:55.261Z,76.68
2018-03-16T18:59:22.911Z,77.24
2018-03-16T19:01:50.505Z,77.63
2018-03-16T19:04:18.648Z,77.74
2018-03-16T19:06:46.264Z,76.55
2018-03-16T19:09:13.868Z,75.62
2018-03-16T19:11:41.521Z,76.58
2018-03-16T19:14:09.148Z,77.12
2018-03-16T19:16:36.784Z,76.82
2018-03-16T19:19:04.361Z,77.48
2018-03-16T19:21:32.005Z,78.10
2018-03-16T19:23:59.620Z,78.24
2018-03-16T19:26:27.213Z,77.96
2018-03-16T19:28:54.862Z,77.50
2018-03-16T19:31:22.453Z,77.44
2018-03-16T19:33:50.313Z,77.25
2018-03-16T19:36:17.920Z,77.00
2018-03-16T19:38:45.515Z,76.99
2018-03-16T19:41:13.139Z,76.96
2018-03-16T19:43:40.740Z,76.78
2018-03-16T19:46:08.369Z,76.74
2018-03-16T19:48:36.003Z,76.93
2018-03-16T19:51:03.798Z,77.83
2018-03-16T19:53:31.422Z,78.58
2018-03-16T19:55:59.032Z,78.40
2018-03-16T19:58:26.660Z,78.74
2018-03-16T20:00:54.258Z,79.49
2018-03-16T20:03:21.871Z,79.40
2018-03-16T20:05:49.468Z,79.72
2018-03-16T20:08:17.059Z,79.04
2018-03-16T20:10:44.676Z,79.68
2018-03-16T20:13:12.272Z,79.79
2018-03-16T20:15:39.922Z,79.99
2018-03-16T20:18:07.520Z,79.95
2018-03-16T20:20:35.108Z,79.80
2018-03-16T20:23:02.732Z,79.61
2018-03-16T20:25:30.341Z,79.13
2018-03-16T20:27:58.009Z,79.03
2018-03-16T20:30:25.605Z,79.36
2018-03-16T20:32:53.247Z,79.13
2018-03-16T20:35:20.861Z,79.13
2018-03-16T20:37:48.456Z,79.21
2018-03-16T20:40:16.064Z,78.92
2018-03-16T20:42:43.653Z,78.92
2018-03-16T20:45:11.499Z,78.73
2018-03-16T20:47:39.088Z,78.79
2018-03-16T20:50:06.776Z,77.86
2018-03-16T20:52:34.390Z,78.13
2018-03-16T20:55:01.993Z,78.67
2018-03-16T20:57:29.647Z,78.51
2018-03-16T20:59:57.244Z,78.75
2018-03-16T21:02:25.030Z,78.25
2018-03-16T21:04:52.653Z,77.81
2018-03-16T21:07:20.241Z,78.05
2018-03-16T21:09:47.852Z,77.27
2018-03-16T21:12:15.476Z,77.50
2018-03-16T21:14:43.096Z,77.62
2018-03-16T21:17:10.725Z,76.83
2018-03-16T21:19:38.561Z,76.07
2018-03-16T21:22:06.149Z,77.29
2018-03-16T21:24:33.743Z,77.54
2018-03-16T21:27:01.350Z,76.49
2018-03-16T21:29:28.936Z,78.23
2018-03-16T21:31:56.547Z,79.14
2018-03-16T21:34:24.147Z,80.24
2018-03-16T21:36:51.760Z,80.99
2018-03-16T21:39:19.399Z,80.64
2018-03-16T21:41:46.977Z,80.57
2018-03-16T21:44:14.567Z,80.72
2018-03-16T21:46:42.555Z,80.58
2018-03-16T21:49:10.185Z,80.91
2018-03-16T21:51:37.779Z,80.56
2018-03-16T21:54:05.396Z,79.58
2018-03-16T21:56:32.994Z,79.49
2018-03-16T21:59:00.614Z,78.90
2018-03-16T22:01:28.252Z,77.75
2018-03-16T22:03:55.845Z,77.27
2018-03-16T22:06:23.484Z,77.10
2018-03-16T22:08:51.730Z,77.09
2018-03-16T22:11:19.314Z,77.40
2018-03-16T22:13:46.943Z,76.81
2018-03-16T22:16:14.553Z,76.73
2018-03-16T22:18:42.137Z,76.93
2018-03-16T22:21:09.752Z,76.04
2018-03-16T22:23:37.340Z,76.39
2018-03-16T22:26:05.241Z,75.70
2018-03-16T22:28:32.829Z,76.39
2018-03-16T22:31:00.423Z,76.19
2018-03-16T22:33:28.073Z,75.79
2018-03-16T22:35:55.674Z,76.46
2018-03-16T22:38:23.429Z,76.08
2018-03-16T22:40:51.017Z,77.43
2018-03-16T22:43:18.657Z,76.08
2018-03-16T22:45:46.290Z,76.02
2018-03-16T22:48:14.004Z,76.04
2018-03-16T22:50:41.622Z,75.79
2018-03-16T22:53:09.240Z,75.52
2018-03-16T22:55:36.843Z,75.71
2018-03-16T22:58:04.551Z,75.92
2018-03-16T23:00:32.204Z,75.36
2018-03-16T23:02:59.796Z,76.57
2018-03-16T23:05:27.399Z,75.39
2018-03-16T23:07:55.013Z,75.47
2018-03-16T23:10:22.605Z,75.84
2018-03-16T23:12:50.218Z,75.52
2018-03-16T23:15:18.221Z,75.22
2018-03-16T23:17:45.865Z,74.56
2018-03-16T23:20:13.583Z,75.32
2018-03-16T23:22:41.180Z,74.72
2018-03-16T23:25:08.821Z,75.38
2018-03-16T23:27:36.414Z,76.40
2018-03-16T23:30:04.036Z,76.39
2018-03-16T23:32:31.617Z,76.28
2018-03-16T23:34:59.488Z,76.57
2018-03-16T23:37:27.171Z,76.19
2018-03-16T23:39:54.780Z,75.53
2018-03-16T23:42:22.476Z,75.42
2018-03-16T23:44:50.148Z,76.54
2018-03-16T23:47:17.856Z,76.39
2018-03-16T23:49:45.456Z,76.66
2018-03-16T23:52:13.168Z,77.06
2018-03-16T23:54:40.840Z,77.16
2018-03-16T23:57:08.461Z,76.93
2018-03-16T23:59:36.168Z,77.13
